ADDS METAR Data INFO
IDs: Format: Raw Decoded Include TAF

Data at: 1146 UTC 25 Jun 2018

KBEA 251135Z AUTO 17008KT 10SM CLR 25/24 A2993 RMK AO2 T02490238
KBEA 251115Z AUTO 16009KT 10SM SCT015 25/24 A2991 RMK AO2 T02500238
KBEA 251055Z AUTO 16008KT 10SM SCT017 BKN038 BKN047 25/24 A2990 RMK AO2 T02500236
KBEA 251035Z AUTO 16006KT 10SM SCT038 BKN047 25/24 A2991 RMK AO2 T02500237
KBEA 251015Z AUTO 16007KT 10SM CLR 25/24 A2990 RMK AO2 T02500237
KBEA 250955Z AUTO 16009KT 10SM SCT018 SCT025 SCT048 25/24 A2990 RMK AO2 LTG DSNT SE T02520237
KBEA 250935Z AUTO 16005KT 10SM SCT020 SCT025 BKN031 26/24 A2990 RMK AO2 T02550238
KBEA 250915Z AUTO 16007KT 10SM SCT020 SCT025 SCT036 25/24 A2990 RMK AO2 T02530240
KBEA 250855Z AUTO 15007KT 10SM BKN022 BKN030 BKN045 26/24 A2990 RMK AO2 T02550240
KBEA 250835Z AUTO 13005KT 10SM SCT022 SCT029 BKN047 26/24 A2991 RMK AO2 T02550242
KBEA 250815Z AUTO 13006KT 10SM SCT021 SCT045 26/24 A2990 RMK AO2 T02550240
KBEA 250755Z AUTO 14007KT 10SM SCT021 25/24 A2990 RMK AO2 T02530241
KBEA 250735Z AUTO 14006KT 10SM SCT021 SCT039 SCT045 25/24 A2990 RMK AO2 T02520241
KBEA 250715Z AUTO 13007KT 10SM SCT043 25/24 A2990 RMK AO2 T02530241
KBEA 250655Z AUTO 13009KT 10SM SCT043 25/24 A2990 RMK AO2 T02520241
KBEA 250635Z AUTO 14007KT 10SM CLR 25/24 A2990 RMK AO2 T02510240
KBEA 250615Z AUTO 14008KT 10SM CLR 25/24 A2990 RMK AO2 T02500240
KBEA 250555Z AUTO 14005KT 10SM CLR 25/24 A2991 RMK AO2 T02510239 10310 20251 403290251
KBEA 250535Z AUTO 13006KT 10SM CLR 25/24 A2992 RMK AO2 T02530239
KBEA 250515Z AUTO 13007KT 10SM CLR 26/24 A2992 RMK AO2 T02550240
KBEA 250455Z AUTO 13007KT 10SM CLR 26/24 A2992 RMK AO2 T02550241
KBEA 250435Z AUTO 13008KT 10SM CLR 26/24 A2990 RMK AO2 T02570242
KBEA 250415Z AUTO 13007KT 10SM CLR 26/24 A2990 RMK AO2 T02600242
KBEA 250355Z AUTO 14009KT 10SM CLR 26/24 A2989 RMK AO2 T02600241
KBEA 250335Z AUTO 13008KT 10SM CLR 26/24 A2989 RMK AO2 T02620241
KBEA 250315Z AUTO 13008KT 10SM CLR 26/24 A2988 RMK AO2 T02620241
KBEA 250255Z AUTO 14009KT 10SM CLR 27/24 A2987 RMK AO2 T02650240
KBEA 250235Z AUTO 13008KT 10SM CLR 27/24 A2986 RMK AO2 T02660238
KBEA 250215Z AUTO 13010KT 10SM CLR 27/24 A2985 RMK AO2 T02690238
KBEA 250155Z AUTO 14007KT 10SM SCT022 BKN027 27/24 A2985 RMK AO2 T02740240
KBEA 250135Z AUTO 14009G16KT 10SM BKN024 BKN029 28/24 A2984 RMK AO2 T02800239
KBEA 250115Z AUTO 15012KT 10SM SCT028 29/23 A2984 RMK AO2 T02850232
KBEA 250055Z AUTO 14010KT 10SM CLR 29/23 A2984 RMK AO2 T02900231
KBEA 250035Z AUTO 14010G18KT 10SM CLR 30/23 A2984 RMK AO2 T02970231
KBEA 250015Z AUTO 14015G18KT 10SM SCT031 30/23 A2984 RMK AO2 T02980231
KBEA 242355Z AUTO 14015G19KT 10SM SCT033 31/23 A2983 RMK AO2 T03090233 10329 20309
KBEA 242335Z AUTO 15015G20KT 10SM SCT037 31/23 A2983 RMK AO2 T03110229
KBEA 242315Z AUTO 14016G20KT 10SM CLR 32/23 A2983 RMK AO2 T03150228
KBEA 242255Z AUTO 14016G22KT 10SM SCT036 32/23 A2983 RMK AO2 T03200234
KBEA 242235Z AUTO 14012G18KT 10SM SCT036 32/24 A2984 RMK AO2 T03160238
KBEA 242215Z AUTO 15013G20KT 10SM SCT036 32/23 A2985 RMK AO2 T03210231
KBEA 242155Z AUTO 14011G19KT 10SM BKN036 32/23 A2985 RMK AO2 T03190232
KBEA 242135Z AUTO 16014G19KT 10SM BKN036 32/24 A2985 RMK AO2 T03230238
KBEA 242115Z AUTO 14014G21KT 10SM BKN034 BKN043 33/24 A2985 RMK AO2 T03250240
KBEA 242055Z AUTO 15014G23KT 10SM SCT034 BKN041 32/24 A2986 RMK AO2 T03170237
KBEA 242035Z AUTO 14016G25KT 10SM BKN036 OVC043 31/24 A2986 RMK AO2 T03140240
KBEA 242015Z AUTO 16018G23KT 10SM BKN036 33/24 A2986 RMK AO2 T03270241
KBEA 241955Z AUTO 15021G27KT 10SM SCT034 SCT044 33/24 A2986 RMK AO2 T03250240
KBEA 241935Z AUTO 15018G25KT 10SM SCT034 BKN043 32/24 A2987 RMK AO2 T03180240
KBEA 241915Z AUTO 15021G26KT 10SM BKN036 BKN042 32/24 A2986 RMK AO2 T03150238
KBEA 241855Z AUTO 14013G23KT 10SM SCT036 BKN044 32/24 A2987 RMK AO2 T03240240
KBEA 241835Z AUTO 14014G18KT 10SM BKN038 32/24 A2987 RMK AO2 T03200239
KBEA 241815Z AUTO 15013G19KT 10SM BKN036 32/24 A2987 RMK AO2 T03180237
KBEA 241755Z AUTO 15013G22KT 10SM BKN036 32/24 A2986 RMK AO2 T03220238 10323 20252
KBEA 241735Z AUTO 14017G21KT 10SM BKN036 32/24 A2986 RMK AO2 T03210237
KBEA 241715Z AUTO 16014G21KT 10SM BKN034 31/24 A2987 RMK AO2 T03140236
KBEA 241655Z AUTO 16014G21KT 10SM SCT032 31/24 A2986 RMK AO2 T03130236
KBEA 241635Z AUTO 17014G20KT 10SM SCT030 31/24 A2986 RMK AO2 T03120237
KBEA 241615Z AUTO 16016G22KT 10SM SCT028 31/24 A2986 RMK AO2 T03110237
KBEA 241555Z AUTO 16014G19KT 10SM SCT026 31/23 A2985 RMK AO2 T03050234
KBEA 241535Z AUTO 17013G18KT 10SM SCT024 30/24 A2985 RMK AO2 T03010239
KBEA 241515Z AUTO 17015G20KT 10SM BKN020 BKN025 29/24 A2985 RMK AO2 T02940243
KBEA 241455Z AUTO 18013G19KT 10SM BKN018 BKN023 29/24 A2986 RMK AO2 T02890243
KBEA 241435Z AUTO 17012G18KT 10SM BKN016 28/25 A2986 RMK AO2 T02840245
KBEA 241415Z AUTO 18009G17KT 10SM BKN016 OVC022 28/25 A2987 RMK AO2 LTG DSNT SE T02790245
KBEA 241355Z AUTO 18012KT 10SM BKN016 OVC023 27/24 A2988 RMK AO2 T02710242
KBEA 241335Z AUTO 18009KT 10SM BKN016 OVC021 27/24 A2988 RMK AO2 T02670243
KBEA 241315Z AUTO 18008G14KT 10SM BKN014 OVC021 26/24 A2987 RMK AO2 T02640244
KBEA 241255Z AUTO 17007KT 10SM OVC014 26/25 A2987 RMK AO2 LTG DSNT SE T02600245
KBEA 241235Z AUTO 16006KT 10SM OVC014 26/24 A2987 RMK AO2 LTG DSNT SE T02560244
KBEA 241215Z AUTO 16007KT 10SM OVC012 26/24 A2986 RMK AO2 T02550243
KBEA 241155Z AUTO 16008KT 10SM OVC010 25/24 A2985 RMK AO2 T02520242 10265 20251
KBEA 241135Z AUTO 16007KT 10SM OVC010 25/24 A2984 RMK AO2 T02520243
KBEA 241115Z AUTO 15006KT 10SM OVC010 25/24 A2985 RMK AO2 T02520242
KBEA 241055Z AUTO 15009G15KT 10SM OVC010 26/24 A2984 RMK AO2 T02550243
KBEA 241035Z AUTO 17009KT 10SM OVC012 26/24 A2984 RMK AO2 T02550242
KBEA 241015Z AUTO 17012KT 10SM OVC014 26/24 A2983 RMK AO2 T02570242
KBEA 240955Z AUTO 17013G19KT 10SM OVC014 26/24 A2983 RMK AO2 T02580242
KBEA 240935Z AUTO 16015G19KT 10SM BKN016 26/24 A2983 RMK AO2 T02550242
KBEA 240915Z AUTO 16014KT 10SM OVC018 26/24 A2983 RMK AO2 T02600243
KBEA 240855Z AUTO 16012G17KT 7SM OVC016 26/25 A2984 RMK AO2 T02600245
KBEA 240835Z AUTO 16011G15KT 7SM BKN016 OVC022 26/25 A2985 RMK AO2 T02600245
KBEA 240815Z AUTO 16013G18KT 7SM BKN018 BKN022 26/25 A2985 RMK AO2 T02610245
KBEA 240755Z AUTO 16014G19KT 10SM SCT016 BKN024 26/24 A2985 RMK AO2 T02620244
KBEA 240735Z AUTO 16012G22KT 10SM BKN016 BKN021 BKN026 26/25 A2985 RMK AO2 T02630245
KBEA 240715Z AUTO 16013G20KT 10SM SCT018 BKN024 26/25 A2985 RMK AO2 T02630245
KBEA 240655Z AUTO 16016G19KT 10SM SCT017 OVC024 27/25 A2985 RMK AO2 T02650245
KBEA 240635Z AUTO 16014G20KT 10SM SCT015 OVC024 26/25 A2986 RMK AO2 T02640245
KBEA 240615Z AUTO 17012G16KT 10SM BKN015 OVC020 26/25 A2986 RMK AO2 T02620247
KBEA 240555Z AUTO 16014G19KT 10SM BKN015 OVC020 26/25 A2985 RMK AO2 T02620248 10302 20260 403390243
KBEA 240535Z AUTO 16011G17KT 10SM BKN018 26/25 A2984 RMK AO2 T02600247
KBEA 240515Z AUTO 16013G16KT 10SM SCT018 26/25 A2984 RMK AO2 T02600247
KBEA 240455Z AUTO 15013KT 10SM CLR 26/25 A2982 RMK AO2 T02600248
KBEA 240435Z AUTO 15013G16KT 7SM SCT012 26/25 A2982 RMK AO2 T02610250
KBEA 240415Z AUTO 15010KT 10SM SCT012 26/25 A2982 RMK AO2 T02620250
KBEA 240355Z AUTO 15013G17KT 10SM BKN012 26/25 A2982 RMK AO2 T02630250
KBEA 240335Z AUTO 15010KT 10SM BKN012 27/25 A2981 RMK AO2 T02650250
KBEA 240315Z AUTO 14011G17KT 10SM BKN012 27/25 A2980 RMK AO2 T02670251
KBEA 240255Z AUTO 14010G15KT 10SM OVC012 27/25 A2979 RMK AO2 T02690252
KBEA 240235Z AUTO 14012G19KT 10SM OVC014 27/25 A2979 RMK AO2 T02710253
KBEA 240215Z AUTO 14010G17KT 10SM BKN014 27/25 A2978 RMK AO2 T02730253
KBEA 240155Z AUTO 13010G17KT 10SM SCT018 28/25 A2977 RMK AO2 T02760253
KBEA 240135Z AUTO 13012KT 10SM SCT018 28/25 A2977 RMK AO2 T02800253
KBEA 240115Z AUTO 14011G18KT 10SM SCT018 29/26 A2977 RMK AO2 T02850255
KBEA 240055Z AUTO 14014G17KT 10SM BKN018 29/26 A2976 RMK AO2 T02880255
KBEA 240035Z AUTO 14013G18KT 10SM BKN018 BKN024 29/26 A2977 RMK AO2 T02910257
KBEA 240015Z AUTO 14016G21KT 10SM BKN020 30/26 A2976 RMK AO2 T02950256
KBEA 232355Z AUTO 13018G23KT 10SM OVC022 30/26 A2975 RMK AO2 T03010259 10339 20300